sensor_id;sensor_type;location;lat;lon;timestamp;P1;durP1;ratioP1;P2;durP2;ratioP2
6280;SDS011;3173;48.204;11.612;2022-11-23T00:03:46;4.40;;;1.80;;
6280;SDS011;3173;48.204;11.612;2022-11-23T00:06:12;3.40;;;1.80;;
6280;SDS011;3173;48.204;11.612;2022-11-23T00:08:39;6.67;;;1.80;;
6280;SDS011;3173;48.204;11.612;2022-11-23T00:11:05;5.00;;;1.77;;
6280;SDS011;3173;48.204;11.612;2022-11-23T00:13:31;6.80;;;2.10;;
6280;SDS011;3173;48.204;11.612;2022-11-23T00:15:59;6.37;;;2.00;;
6280;SDS011;3173;48.204;11.612;2022-11-23T00:18:25;5.30;;;2.23;;
6280;SDS011;3173;48.204;11.612;2022-11-23T00:20:51;3.40;;;2.00;;
6280;SDS011;3173;48.204;11.612;2022-11-23T00:23:17;3.30;;;1.90;;
6280;SDS011;3173;48.204;11.612;2022-11-23T00:25:43;7.40;;;2.60;;
6280;SDS011;3173;48.204;11.612;2022-11-23T00:28:10;3.47;;;1.87;;
6280;SDS011;3173;48.204;11.612;2022-11-23T00:30:36;3.40;;;2.00;;
6280;SDS011;3173;48.204;11.612;2022-11-23T00:33:01;7.40;;;2.30;;
6280;SDS011;3173;48.204;11.612;2022-11-23T00:35:27;10.70;;;2.00;;
6280;SDS011;3173;48.204;11.612;2022-11-23T00:37:53;3.87;;;1.83;;
6280;SDS011;3173;48.204;11.612;2022-11-23T00:40:19;6.00;;;1.83;;
6280;SDS011;3173;48.204;11.612;2022-11-23T00:42:45;3.90;;;1.53;;
6280;SDS011;3173;48.204;11.612;2022-11-23T00:45:11;2.60;;;1.90;;
6280;SDS011;3173;48.204;11.612;2022-11-23T00:47:37;7.43;;;2.53;;
6280;SDS011;3173;48.204;11.612;2022-11-23T00:50:03;5.73;;;2.07;;
6280;SDS011;3173;48.204;11.612;2022-11-23T00:52:29;3.57;;;2.17;;
6280;SDS011;3173;48.204;11.612;2022-11-23T00:54:55;3.20;;;1.80;;
6280;SDS011;3173;48.204;11.612;2022-11-23T00:57:21;6.07;;;2.10;;
6280;SDS011;3173;48.204;11.612;2022-11-23T00:59:47;4.23;;;1.77;;
6280;SDS011;3173;48.204;11.612;2022-11-23T01:02:13;2.40;;;1.73;;
6280;SDS011;3173;48.204;11.612;2022-11-23T01:04:39;3.67;;;2.00;;
6280;SDS011;3173;48.204;11.612;2022-11-23T01:07:05;5.37;;;2.23;;
6280;SDS011;3173;48.204;11.612;2022-11-23T01:09:31;4.10;;;2.00;;
6280;SDS011;3173;48.204;11.612;2022-11-23T01:11:57;6.63;;;2.27;;
6280;SDS011;3173;48.204;11.612;2022-11-23T01:14:23;3.50;;;1.97;;
6280;SDS011;3173;48.204;11.612;2022-11-23T01:16:48;6.47;;;1.97;;
6280;SDS011;3173;48.204;11.612;2022-11-23T01:19:16;3.27;;;1.90;;
6280;SDS011;3173;48.204;11.612;2022-11-23T01:21:42;7.13;;;2.30;;
6280;SDS011;3173;48.204;11.612;2022-11-23T01:24:10;2.43;;;1.73;;
6280;SDS011;3173;48.204;11.612;2022-11-23T01:26:37;2.23;;;1.50;;
6280;SDS011;3173;48.204;11.612;2022-11-23T01:29:03;5.13;;;2.23;;
6280;SDS011;3173;48.204;11.612;2022-11-23T01:31:29;7.00;;;2.53;;
6280;SDS011;3173;48.204;11.612;2022-11-23T01:33:55;4.87;;;2.20;;
6280;SDS011;3173;48.204;11.612;2022-11-23T01:36:22;4.63;;;2.57;;
6280;SDS011;3173;48.204;11.612;2022-11-23T01:38:49;3.53;;;2.33;;
6280;SDS011;3173;48.204;11.612;2022-11-23T01:41:16;6.00;;;2.20;;
6280;SDS011;3173;48.204;11.612;2022-11-23T01:43:42;3.43;;;1.90;;
6280;SDS011;3173;48.204;11.612;2022-11-23T01:46:09;6.53;;;2.53;;
6280;SDS011;3173;48.204;11.612;2022-11-23T01:48:58;7.87;;;2.47;;
6280;SDS011;3173;48.204;11.612;2022-11-23T01:51:23;4.13;;;2.40;;
6280;SDS011;3173;48.204;11.612;2022-11-23T01:53:51;5.07;;;2.70;;
6280;SDS011;3173;48.204;11.612;2022-11-23T01:56:24;5.27;;;2.50;;
6280;SDS011;3173;48.204;11.612;2022-11-23T01:58:52;5.97;;;2.63;;
6280;SDS011;3173;48.204;11.612;2022-11-23T02:01:18;6.03;;;2.23;;
6280;SDS011;3173;48.204;11.612;2022-11-23T02:03:45;6.07;;;2.47;;
6280;SDS011;3173;48.204;11.612;2022-11-23T02:06:18;4.40;;;2.70;;
6280;SDS011;3173;48.204;11.612;2022-11-23T02:08:45;3.60;;;2.13;;
6280;SDS011;3173;48.204;11.612;2022-11-23T02:11:12;4.63;;;2.10;;
6280;SDS011;3173;48.204;11.612;2022-11-23T02:13:38;5.20;;;2.50;;
6280;SDS011;3173;48.204;11.612;2022-11-23T02:16:04;21.00;;;2.73;;
6280;SDS011;3173;48.204;11.612;2022-11-23T02:18:31;4.63;;;2.47;;
6280;SDS011;3173;48.204;11.612;2022-11-23T02:20:58;4.50;;;2.10;;
6280;SDS011;3173;48.204;11.612;2022-11-23T02:23:37;4.20;;;2.70;;
6280;SDS011;3173;48.204;11.612;2022-11-23T02:26:26;4.60;;;1.93;;
6280;SDS011;3173;48.204;11.612;2022-11-23T02:29:04;4.40;;;2.60;;
6280;SDS011;3173;48.204;11.612;2022-11-23T02:31:30;6.63;;;2.50;;
6280;SDS011;3173;48.204;11.612;2022-11-23T02:33:56;3.53;;;2.00;;
6280;SDS011;3173;48.204;11.612;2022-11-23T02:36:36;10.60;;;4.73;;
6280;SDS011;3173;48.204;11.612;2022-11-23T02:39:05;8.40;;;2.77;;
6280;SDS011;3173;48.204;11.612;2022-11-23T02:41:51;4.03;;;2.30;;
6280;SDS011;3173;48.204;11.612;2022-11-23T02:44:26;4.70;;;2.30;;
6280;SDS011;3173;48.204;11.612;2022-11-23T02:46:55;5.40;;;2.87;;
6280;SDS011;3173;48.204;11.612;2022-11-23T02:49:22;6.67;;;2.37;;
6280;SDS011;3173;48.204;11.612;2022-11-23T02:51:48;5.10;;;1.70;;
6280;SDS011;3173;48.204;11.612;2022-11-23T02:54:14;4.10;;;2.20;;
6280;SDS011;3173;48.204;11.612;2022-11-23T02:56:40;5.87;;;1.93;;
6280;SDS011;3173;48.204;11.612;2022-11-23T02:59:06;5.60;;;2.47;;
6280;SDS011;3173;48.204;11.612;2022-11-23T03:01:32;4.10;;;1.90;;
6280;SDS011;3173;48.204;11.612;2022-11-23T03:03:58;5.73;;;2.20;;
6280;SDS011;3173;48.204;11.612;2022-11-23T03:06:24;3.97;;;1.93;;
6280;SDS011;3173;48.204;11.612;2022-11-23T03:08:50;5.77;;;2.03;;
6280;SDS011;3173;48.204;11.612;2022-11-23T03:11:16;5.97;;;2.50;;
6280;SDS011;3173;48.204;11.612;2022-11-23T03:13:42;2.60;;;1.53;;
6280;SDS011;3173;48.204;11.612;2022-11-23T03:16:08;7.03;;;2.07;;
6280;SDS011;3173;48.204;11.612;2022-11-23T03:18:34;2.77;;;1.70;;
6280;SDS011;3173;48.204;11.612;2022-11-23T03:21:01;2.40;;;1.57;;
6280;SDS011;3173;48.204;11.612;2022-11-23T03:23:27;3.47;;;1.70;;
6280;SDS011;3173;48.204;11.612;2022-11-23T03:25:54;4.60;;;1.73;;
6280;SDS011;3173;48.204;11.612;2022-11-23T03:28:20;6.87;;;1.80;;
6280;SDS011;3173;48.204;11.612;2022-11-23T03:30:47;4.03;;;1.50;;
6280;SDS011;3173;48.204;11.612;2022-11-23T03:33:13;5.80;;;1.80;;
6280;SDS011;3173;48.204;11.612;2022-11-23T03:35:39;2.50;;;1.40;;
6280;SDS011;3173;48.204;11.612;2022-11-23T03:38:05;4.63;;;1.40;;
6280;SDS011;3173;48.204;11.612;2022-11-23T03:40:31;3.33;;;1.40;;
6280;SDS011;3173;48.204;11.612;2022-11-23T03:42:57;4.50;;;1.40;;
6280;SDS011;3173;48.204;11.612;2022-11-23T03:45:23;2.10;;;1.43;;
6280;SDS011;3173;48.204;11.612;2022-11-23T03:47:49;2.77;;;1.80;;
6280;SDS011;3173;48.204;11.612;2022-11-23T03:50:15;4.70;;;2.10;;
6280;SDS011;3173;48.204;11.612;2022-11-23T03:52:41;3.17;;;1.73;;
6280;SDS011;3173;48.204;11.612;2022-11-23T03:55:07;2.93;;;1.30;;
6280;SDS011;3173;48.204;11.612;2022-11-23T03:57:33;6.17;;;2.10;;
6280;SDS011;3173;48.204;11.612;2022-11-23T03:59:59;5.97;;;2.60;;
6280;SDS011;3173;48.204;11.612;2022-11-23T04:02:25;3.40;;;1.67;;
6280;SDS011;3173;48.204;11.612;2022-11-23T04:04:51;4.03;;;1.43;;
6280;SDS011;3173;48.204;11.612;2022-11-23T04:07:17;5.10;;;1.93;;
6280;SDS011;3173;48.204;11.612;2022-11-23T04:09:43;6.13;;;1.77;;
6280;SDS011;3173;48.204;11.612;2022-11-23T04:12:09;7.60;;;2.50;;
6280;SDS011;3173;48.204;11.612;2022-11-23T04:14:35;7.40;;;1.90;;
6280;SDS011;3173;48.204;11.612;2022-11-23T04:17:01;3.50;;;1.60;;
6280;SDS011;3173;48.204;11.612;2022-11-23T04:19:27;3.63;;;1.90;;
6280;SDS011;3173;48.204;11.612;2022-11-23T04:21:53;4.90;;;1.70;;
6280;SDS011;3173;48.204;11.612;2022-11-23T04:24:19;3.53;;;1.73;;
6280;SDS011;3173;48.204;11.612;2022-11-23T04:26:45;4.53;;;1.90;;
6280;SDS011;3173;48.204;11.612;2022-11-23T04:29:11;5.70;;;1.90;;
6280;SDS011;3173;48.204;11.612;2022-11-23T04:31:37;4.27;;;1.77;;
6280;SDS011;3173;48.204;11.612;2022-11-23T04:34:03;6.40;;;1.97;;
6280;SDS011;3173;48.204;11.612;2022-11-23T04:36:29;4.07;;;2.30;;
6280;SDS011;3173;48.204;11.612;2022-11-23T04:38:55;2.07;;;1.50;;
6280;SDS011;3173;48.204;11.612;2022-11-23T04:41:21;5.77;;;1.80;;
6280;SDS011;3173;48.204;11.612;2022-11-23T04:43:47;4.40;;;1.90;;
6280;SDS011;3173;48.204;11.612;2022-11-23T04:46:13;2.93;;;1.97;;
6280;SDS011;3173;48.204;11.612;2022-11-23T04:48:39;8.33;;;2.53;;
6280;SDS011;3173;48.204;11.612;2022-11-23T04:51:05;5.50;;;2.20;;
6280;SDS011;3173;48.204;11.612;2022-11-23T04:53:31;5.07;;;2.37;;
6280;SDS011;3173;48.204;11.612;2022-11-23T04:55:57;4.63;;;2.20;;
6280;SDS011;3173;48.204;11.612;2022-11-23T04:58:23;2.60;;;2.00;;
6280;SDS011;3173;48.204;11.612;2022-11-23T05:00:49;2.90;;;2.27;;
6280;SDS011;3173;48.204;11.612;2022-11-23T05:03:15;3.70;;;2.23;;
6280;SDS011;3173;48.204;11.612;2022-11-23T05:05:41;4.47;;;2.70;;
6280;SDS011;3173;48.204;11.612;2022-11-23T05:08:07;15.77;;;2.93;;
6280;SDS011;3173;48.204;11.612;2022-11-23T05:10:33;3.13;;;2.10;;
6280;SDS011;3173;48.204;11.612;2022-11-23T05:13:00;6.70;;;2.43;;
6280;SDS011;3173;48.204;11.612;2022-11-23T05:15:26;5.43;;;2.40;;
6280;SDS011;3173;48.204;11.612;2022-11-23T05:17:52;5.00;;;2.23;;
6280;SDS011;3173;48.204;11.612;2022-11-23T05:20:18;3.83;;;2.25;;
6280;SDS011;3173;48.204;11.612;2022-11-23T05:22:45;5.00;;;2.90;;
6280;SDS011;3173;48.204;11.612;2022-11-23T05:25:12;4.83;;;2.40;;
6280;SDS011;3173;48.204;11.612;2022-11-23T05:27:38;5.53;;;2.10;;
6280;SDS011;3173;48.204;11.612;2022-11-23T05:30:04;4.70;;;2.20;;
6280;SDS011;3173;48.204;11.612;2022-11-23T05:32:30;5.77;;;2.43;;
6280;SDS011;3173;48.204;11.612;2022-11-23T05:34:56;7.50;;;2.30;;
6280;SDS011;3173;48.204;11.612;2022-11-23T05:37:22;4.40;;;2.47;;
6280;SDS011;3173;48.204;11.612;2022-11-23T05:39:48;6.90;;;2.20;;
6280;SDS011;3173;48.204;11.612;2022-11-23T05:42:13;4.23;;;2.50;;
6280;SDS011;3173;48.204;11.612;2022-11-23T05:44:39;4.37;;;1.90;;
6280;SDS011;3173;48.204;11.612;2022-11-23T05:47:05;5.00;;;2.03;;
6280;SDS011;3173;48.204;11.612;2022-11-23T05:49:32;4.90;;;2.10;;
6280;SDS011;3173;48.204;11.612;2022-11-23T05:51:58;10.53;;;3.10;;
6280;SDS011;3173;48.204;11.612;2022-11-23T05:54:24;5.77;;;2.50;;
6280;SDS011;3173;48.204;11.612;2022-11-23T05:56:49;7.53;;;2.47;;
6280;SDS011;3173;48.204;11.612;2022-11-23T05:59:15;5.67;;;2.60;;
6280;SDS011;3173;48.204;11.612;2022-11-23T06:01:41;5.50;;;2.90;;
6280;SDS011;3173;48.204;11.612;2022-11-23T06:04:07;9.73;;;3.03;;
6280;SDS011;3173;48.204;11.612;2022-11-23T06:06:33;5.10;;;2.60;;
6280;SDS011;3173;48.204;11.612;2022-11-23T06:08:59;3.70;;;2.57;;
6280;SDS011;3173;48.204;11.612;2022-11-23T06:11:25;8.10;;;2.80;;
6280;SDS011;3173;48.204;11.612;2022-11-23T06:13:51;5.00;;;3.00;;
6280;SDS011;3173;48.204;11.612;2022-11-23T06:16:17;10.10;;;2.70;;
6280;SDS011;3173;48.204;11.612;2022-11-23T06:18:43;7.87;;;2.47;;
6280;SDS011;3173;48.204;11.612;2022-11-23T06:21:09;4.90;;;2.70;;
6280;SDS011;3173;48.204;11.612;2022-11-23T06:23:35;5.20;;;2.50;;
6280;SDS011;3173;48.204;11.612;2022-11-23T06:26:01;5.90;;;2.60;;
6280;SDS011;3173;48.204;11.612;2022-11-23T06:28:27;4.20;;;2.30;;
6280;SDS011;3173;48.204;11.612;2022-11-23T06:30:53;4.90;;;2.00;;
6280;SDS011;3173;48.204;11.612;2022-11-23T06:33:19;2.90;;;1.67;;
6280;SDS011;3173;48.204;11.612;2022-11-23T06:35:55;4.97;;;2.30;;
6280;SDS011;3173;48.204;11.612;2022-11-23T06:38:22;8.00;;;2.17;;
6280;SDS011;3173;48.204;11.612;2022-11-23T06:40:48;2.77;;;2.00;;
6280;SDS011;3173;48.204;11.612;2022-11-23T06:43:14;2.73;;;2.10;;
6280;SDS011;3173;48.204;11.612;2022-11-23T06:45:39;5.50;;;2.60;;
6280;SDS011;3173;48.204;11.612;2022-11-23T06:48:05;4.73;;;2.53;;
6280;SDS011;3173;48.204;11.612;2022-11-23T06:50:31;4.77;;;2.43;;
6280;SDS011;3173;48.204;11.612;2022-11-23T06:52:57;4.33;;;2.00;;
6280;SDS011;3173;48.204;11.612;2022-11-23T06:55:23;11.43;;;2.70;;
6280;SDS011;3173;48.204;11.612;2022-11-23T06:57:49;3.57;;;2.40;;
6280;SDS011;3173;48.204;11.612;2022-11-23T07:00:16;4.10;;;2.60;;
6280;SDS011;3173;48.204;11.612;2022-11-23T07:02:42;5.90;;;2.63;;
6280;SDS011;3173;48.204;11.612;2022-11-23T07:05:08;11.70;;;3.03;;
6280;SDS011;3173;48.204;11.612;2022-11-23T07:07:34;5.60;;;2.77;;
6280;SDS011;3173;48.204;11.612;2022-11-23T07:10:00;4.07;;;2.10;;
6280;SDS011;3173;48.204;11.612;2022-11-23T07:12:26;5.90;;;2.60;;
6280;SDS011;3173;48.204;11.612;2022-11-23T07:14:52;4.40;;;2.20;;
6280;SDS011;3173;48.204;11.612;2022-11-23T07:17:18;7.10;;;3.17;;
6280;SDS011;3173;48.204;11.612;2022-11-23T07:19:44;4.10;;;2.00;;
6280;SDS011;3173;48.204;11.612;2022-11-23T07:22:10;6.40;;;2.60;;
6280;SDS011;3173;48.204;11.612;2022-11-23T07:24:36;3.90;;;2.37;;
6280;SDS011;3173;48.204;11.612;2022-11-23T07:27:02;2.77;;;2.50;;
6280;SDS011;3173;48.204;11.612;2022-11-23T07:29:28;6.70;;;2.10;;
6280;SDS011;3173;48.204;11.612;2022-11-23T07:31:54;3.30;;;2.10;;
6280;SDS011;3173;48.204;11.612;2022-11-23T07:34:20;5.80;;;2.43;;
6280;SDS011;3173;48.204;11.612;2022-11-23T07:36:46;4.80;;;1.80;;
6280;SDS011;3173;48.204;11.612;2022-11-23T07:39:12;5.90;;;1.97;;
6280;SDS011;3173;48.204;11.612;2022-11-23T07:41:38;7.90;;;1.87;;
6280;SDS011;3173;48.204;11.612;2022-11-23T07:44:04;2.00;;;1.50;;
6280;SDS011;3173;48.204;11.612;2022-11-23T07:46:30;5.57;;;2.40;;
6280;SDS011;3173;48.204;11.612;2022-11-23T07:48:56;5.30;;;2.20;;
6280;SDS011;3173;48.204;11.612;2022-11-23T07:51:26;5.43;;;1.90;;
6280;SDS011;3173;48.204;11.612;2022-11-23T07:53:52;3.07;;;2.20;;
6280;SDS011;3173;48.204;11.612;2022-11-23T07:56:18;9.73;;;2.50;;
6280;SDS011;3173;48.204;11.612;2022-11-23T07:58:44;5.70;;;2.67;;
6280;SDS011;3173;48.204;11.612;2022-11-23T08:01:13;7.40;;;2.60;;
6280;SDS011;3173;48.204;11.612;2022-11-23T08:03:39;6.33;;;1.97;;
6280;SDS011;3173;48.204;11.612;2022-11-23T08:06:08;6.37;;;2.50;;
6280;SDS011;3173;48.204;11.612;2022-11-23T08:08:34;5.20;;;2.37;;
6280;SDS011;3173;48.204;11.612;2022-11-23T08:11:00;17.10;;;3.03;;
6280;SDS011;3173;48.204;11.612;2022-11-23T08:13:26;7.00;;;2.47;;
6280;SDS011;3173;48.204;11.612;2022-11-23T08:15:52;5.10;;;2.10;;
6280;SDS011;3173;48.204;11.612;2022-11-23T08:18:18;10.90;;;2.70;;
6280;SDS011;3173;48.204;11.612;2022-11-23T08:20:44;6.10;;;2.87;;
6280;SDS011;3173;48.204;11.612;2022-11-23T08:23:10;5.50;;;2.30;;
6280;SDS011;3173;48.204;11.612;2022-11-23T08:25:36;3.80;;;2.00;;
6280;SDS011;3173;48.204;11.612;2022-11-23T08:28:02;4.87;;;2.20;;
6280;SDS011;3173;48.204;11.612;2022-11-23T08:30:30;6.70;;;2.60;;
6280;SDS011;3173;48.204;11.612;2022-11-23T08:32:56;5.60;;;2.30;;
6280;SDS011;3173;48.204;11.612;2022-11-23T08:35:22;6.13;;;2.77;;
6280;SDS011;3173;48.204;11.612;2022-11-23T08:37:48;3.50;;;1.70;;
6280;SDS011;3173;48.204;11.612;2022-11-23T08:40:14;10.60;;;2.10;;
6280;SDS011;3173;48.204;11.612;2022-11-23T08:42:40;4.17;;;1.77;;
6280;SDS011;3173;48.204;11.612;2022-11-23T08:45:07;4.60;;;1.80;;
6280;SDS011;3173;48.204;11.612;2022-11-23T08:47:33;12.23;;;2.13;;
6280;SDS011;3173;48.204;11.612;2022-11-23T08:49:59;6.50;;;2.27;;
6280;SDS011;3173;48.204;11.612;2022-11-23T08:52:25;7.60;;;2.20;;
6280;SDS011;3173;48.204;11.612;2022-11-23T08:54:51;5.70;;;1.60;;
6280;SDS011;3173;48.204;11.612;2022-11-23T08:57:17;3.63;;;1.60;;
6280;SDS011;3173;48.204;11.612;2022-11-23T08:59:43;6.63;;;1.63;;
6280;SDS011;3173;48.204;11.612;2022-11-23T09:02:12;4.37;;;1.70;;
6280;SDS011;3173;48.204;11.612;2022-11-23T09:04:39;5.30;;;1.93;;
6280;SDS011;3173;48.204;11.612;2022-11-23T09:07:05;9.03;;;1.87;;
6280;SDS011;3173;48.204;11.612;2022-11-23T09:09:31;4.00;;;2.10;;
6280;SDS011;3173;48.204;11.612;2022-11-23T09:11:57;3.50;;;1.63;;
6280;SDS011;3173;48.204;11.612;2022-11-23T09:14:23;3.97;;;1.70;;
6280;SDS011;3173;48.204;11.612;2022-11-23T09:16:51;7.60;;;1.47;;
6280;SDS011;3173;48.204;11.612;2022-11-23T09:19:17;5.93;;;2.00;;
6280;SDS011;3173;48.204;11.612;2022-11-23T09:21:43;8.40;;;2.27;;
6280;SDS011;3173;48.204;11.612;2022-11-23T09:24:10;5.33;;;1.87;;
6280;SDS011;3173;48.204;11.612;2022-11-23T09:26:36;4.70;;;1.67;;
6280;SDS011;3173;48.204;11.612;2022-11-23T09:29:03;10.43;;;1.80;;
6280;SDS011;3173;48.204;11.612;2022-11-23T09:31:29;3.33;;;1.87;;
6280;SDS011;3173;48.204;11.612;2022-11-23T09:33:55;8.90;;;2.10;;
6280;SDS011;3173;48.204;11.612;2022-11-23T09:36:21;4.03;;;1.60;;
6280;SDS011;3173;48.204;11.612;2022-11-23T09:38:50;7.03;;;2.10;;
6280;SDS011;3173;48.204;11.612;2022-11-23T09:44:02;5.67;;;1.90;;
6280;SDS011;3173;48.204;11.612;2022-11-23T09:46:34;7.30;;;2.20;;
6280;SDS011;3173;48.204;11.612;2022-11-23T09:49:12;4.10;;;1.73;;
6280;SDS011;3173;48.204;11.612;2022-11-23T09:51:40;7.13;;;2.10;;
6280;SDS011;3173;48.204;11.612;2022-11-23T09:54:26;4.63;;;1.83;;
6280;SDS011;3173;48.204;11.612;2022-11-23T09:56:54;4.60;;;1.77;;
6280;SDS011;3173;48.204;11.612;2022-11-23T10:01:53;7.57;;;1.50;;
6280;SDS011;3173;48.204;11.612;2022-11-23T10:04:19;2.57;;;1.30;;
6280;SDS011;3173;48.204;11.612;2022-11-23T10:06:47;4.13;;;1.37;;
6280;SDS011;3173;48.204;11.612;2022-11-23T10:14:18;5.30;;;1.20;;
6280;SDS011;3173;48.204;11.612;2022-11-23T10:24:44;6.63;;;1.37;;
6280;SDS011;3173;48.204;11.612;2022-11-23T10:27:18;5.73;;;1.10;;
6280;SDS011;3173;48.204;11.612;2022-11-23T10:29:44;3.40;;;0.90;;
6280;SDS011;3173;48.204;11.612;2022-11-23T10:34:59;2.30;;;0.70;;
6280;SDS011;3173;48.204;11.612;2022-11-23T10:37:27;3.23;;;0.93;;
6280;SDS011;3173;48.204;11.612;2022-11-23T10:39:53;4.60;;;0.80;;
6280;SDS011;3173;48.204;11.612;2022-11-23T10:44:58;5.90;;;1.00;;
6280;SDS011;3173;48.204;11.612;2022-11-23T10:47:32;3.37;;;1.20;;
6280;SDS011;3173;48.204;11.612;2022-11-23T10:49:59;2.43;;;0.90;;
6280;SDS011;3173;48.204;11.612;2022-11-23T10:52:28;3.23;;;0.90;;
6280;SDS011;3173;48.204;11.612;2022-11-23T10:54:56;3.10;;;1.00;;
6280;SDS011;3173;48.204;11.612;2022-11-23T10:59:56;6.50;;;1.20;;
6280;SDS011;3173;48.204;11.612;2022-11-23T11:02:22;5.27;;;1.10;;
6280;SDS011;3173;48.204;11.612;2022-11-23T11:04:49;6.30;;;1.20;;
6280;SDS011;3173;48.204;11.612;2022-11-23T11:07:25;6.73;;;1.33;;
6280;SDS011;3173;48.204;11.612;2022-11-23T11:09:56;7.87;;;1.37;;
6280;SDS011;3173;48.204;11.612;2022-11-23T11:12:22;4.90;;;1.20;;
6280;SDS011;3173;48.204;11.612;2022-11-23T11:17:33;4.10;;;1.27;;
6280;SDS011;3173;48.204;11.612;2022-11-23T11:19:59;4.67;;;1.70;;
6280;SDS011;3173;48.204;11.612;2022-11-23T11:22:27;4.80;;;1.63;;
6280;SDS011;3173;48.204;11.612;2022-11-23T11:24:54;6.50;;;1.93;;
6280;SDS011;3173;48.204;11.612;2022-11-23T11:27:21;3.07;;;1.37;;
6280;SDS011;3173;48.204;11.612;2022-11-23T11:29:48;3.83;;;1.20;;
6280;SDS011;3173;48.204;11.612;2022-11-23T11:34:48;15.23;;;2.03;;
6280;SDS011;3173;48.204;11.612;2022-11-23T11:39:46;4.80;;;1.20;;
6280;SDS011;3173;48.204;11.612;2022-11-23T11:42:17;3.37;;;0.93;;
6280;SDS011;3173;48.204;11.612;2022-11-23T11:44:45;8.47;;;1.50;;
6280;SDS011;3173;48.204;11.612;2022-11-23T11:47:30;7.20;;;1.67;;
6280;SDS011;3173;48.204;11.612;2022-11-23T11:49:59;3.63;;;1.17;;
6280;SDS011;3173;48.204;11.612;2022-11-23T11:52:27;3.33;;;1.37;;
6280;SDS011;3173;48.204;11.612;2022-11-23T11:55:00;5.13;;;1.20;;
6280;SDS011;3173;48.204;11.612;2022-11-23T11:57:32;6.50;;;1.60;;
6280;SDS011;3173;48.204;11.612;2022-11-23T12:00:00;6.70;;;1.53;;
6280;SDS011;3173;48.204;11.612;2022-11-23T12:03:11;3.13;;;1.20;;
6280;SDS011;3173;48.204;11.612;2022-11-23T12:05:19;4.60;;;1.30;;
6280;SDS011;3173;48.204;11.612;2022-11-23T12:10:49;3.93;;;1.30;;
6280;SDS011;3173;48.204;11.612;2022-11-23T12:13:18;3.47;;;1.33;;
6280;SDS011;3173;48.204;11.612;2022-11-23T12:15:46;4.50;;;1.43;;
6280;SDS011;3173;48.204;11.612;2022-11-23T12:41:42;2.83;;;1.13;;
6280;SDS011;3173;48.204;11.612;2022-11-23T12:47:01;6.70;;;1.10;;
6280;SDS011;3173;48.204;11.612;2022-11-23T12:57:46;2.60;;;1.20;;
6280;SDS011;3173;48.204;11.612;2022-11-23T13:05:32;3.77;;;1.30;;
6280;SDS011;3173;48.204;11.612;2022-11-23T13:15:49;3.53;;;1.00;;
6280;SDS011;3173;48.204;11.612;2022-11-23T13:23:36;7.53;;;1.20;;
6280;SDS011;3173;48.204;11.612;2022-11-23T13:26:10;6.20;;;0.93;;
6280;SDS011;3173;48.204;11.612;2022-11-23T13:28:37;3.23;;;1.00;;
6280;SDS011;3173;48.204;11.612;2022-11-23T13:33:42;4.50;;;1.10;;
6280;SDS011;3173;48.204;11.612;2022-11-23T13:36:09;6.87;;;0.90;;
6280;SDS011;3173;48.204;11.612;2022-11-23T13:38:39;2.80;;;1.10;;
6280;SDS011;3173;48.204;11.612;2022-11-23T13:43:50;4.53;;;0.90;;
6280;SDS011;3173;48.204;11.612;2022-11-23T13:46:25;2.77;;;1.00;;
6280;SDS011;3173;48.204;11.612;2022-11-23T13:48:53;2.70;;;0.87;;
6280;SDS011;3173;48.204;11.612;2022-11-23T13:51:30;4.33;;;1.00;;
6280;SDS011;3173;48.204;11.612;2022-11-23T13:54:04;6.40;;;1.50;;
6280;SDS011;3173;48.204;11.612;2022-11-23T13:56:43;2.93;;;1.00;;
6280;SDS011;3173;48.204;11.612;2022-11-23T14:04:32;2.60;;;1.00;;
6280;SDS011;3173;48.204;11.612;2022-11-23T14:07:00;2.60;;;1.13;;
6280;SDS011;3173;48.204;11.612;2022-11-23T14:09:32;5.03;;;1.00;;
6280;SDS011;3173;48.204;11.612;2022-11-23T14:12:02;3.63;;;1.00;;
6280;SDS011;3173;48.204;11.612;2022-11-23T14:14:33;4.10;;;1.00;;
6280;SDS011;3173;48.204;11.612;2022-11-23T14:20:13;1.53;;;1.00;;
6280;SDS011;3173;48.204;11.612;2022-11-23T14:22:51;5.97;;;1.03;;
6280;SDS011;3173;48.204;11.612;2022-11-23T14:25:29;3.60;;;1.17;;
6280;SDS011;3173;48.204;11.612;2022-11-23T14:28:08;2.33;;;1.10;;
6280;SDS011;3173;48.204;11.612;2022-11-23T14:33:20;7.53;;;1.20;;
6280;SDS011;3173;48.204;11.612;2022-11-23T14:40:59;4.73;;;0.90;;
6280;SDS011;3173;48.204;11.612;2022-11-23T14:43:27;11.63;;;1.20;;
6280;SDS011;3173;48.204;11.612;2022-11-23T14:45:58;3.47;;;1.20;;
6280;SDS011;3173;48.204;11.612;2022-11-23T14:48:26;18.77;;;2.60;;
6280;SDS011;3173;48.204;11.612;2022-11-23T14:50:54;6.20;;;1.20;;
6280;SDS011;3173;48.204;11.612;2022-11-23T14:53:22;2.80;;;1.23;;
6280;SDS011;3173;48.204;11.612;2022-11-23T14:55:48;3.33;;;1.43;;
6280;SDS011;3173;48.204;11.612;2022-11-23T14:58:14;1.70;;;1.10;;
6280;SDS011;3173;48.204;11.612;2022-11-23T15:00:41;2.33;;;1.03;;
6280;SDS011;3173;48.204;11.612;2022-11-23T15:03:08;6.17;;;1.47;;
6280;SDS011;3173;48.204;11.612;2022-11-23T15:05:39;5.10;;;1.73;;
6280;SDS011;3173;48.204;11.612;2022-11-23T15:08:11;5.93;;;1.57;;
6280;SDS011;3173;48.204;11.612;2022-11-23T15:10:41;4.17;;;1.40;;
6280;SDS011;3173;48.204;11.612;2022-11-23T15:13:16;8.40;;;1.93;;
6280;SDS011;3173;48.204;11.612;2022-11-23T15:15:44;8.03;;;1.70;;
6280;SDS011;3173;48.204;11.612;2022-11-23T15:18:11;6.47;;;2.37;;
6280;SDS011;3173;48.204;11.612;2022-11-23T15:20:41;6.67;;;1.63;;
6280;SDS011;3173;48.204;11.612;2022-11-23T15:23:21;5.20;;;1.67;;
6280;SDS011;3173;48.204;11.612;2022-11-23T15:25:53;5.43;;;1.80;;
6280;SDS011;3173;48.204;11.612;2022-11-23T15:28:26;3.37;;;1.80;;
6280;SDS011;3173;48.204;11.612;2022-11-23T15:30:53;8.13;;;2.00;;
6280;SDS011;3173;48.204;11.612;2022-11-23T15:33:20;8.83;;;2.27;;
6280;SDS011;3173;48.204;11.612;2022-11-23T15:35:46;6.73;;;2.20;;
6280;SDS011;3173;48.204;11.612;2022-11-23T15:38:13;8.23;;;1.90;;
6280;SDS011;3173;48.204;11.612;2022-11-23T15:40:40;8.50;;;1.67;;
6280;SDS011;3173;48.204;11.612;2022-11-23T15:43:14;4.00;;;1.60;;
6280;SDS011;3173;48.204;11.612;2022-11-23T15:50:43;3.20;;;1.50;;
6280;SDS011;3173;48.204;11.612;2022-11-23T15:53:11;6.40;;;2.07;;
6280;SDS011;3173;48.204;11.612;2022-11-23T15:55:37;5.73;;;2.20;;
6280;SDS011;3173;48.204;11.612;2022-11-23T15:58:04;7.97;;;1.80;;
6280;SDS011;3173;48.204;11.612;2022-11-23T16:00:32;4.90;;;2.13;;
6280;SDS011;3173;48.204;11.612;2022-11-23T16:05:43;4.00;;;1.90;;
6280;SDS011;3173;48.204;11.612;2022-11-23T16:08:22;8.77;;;1.97;;
6280;SDS011;3173;48.204;11.612;2022-11-23T16:10:52;6.40;;;2.60;;
6280;SDS011;3173;48.204;11.612;2022-11-23T16:13:37;5.37;;;2.57;;
6280;SDS011;3173;48.204;11.612;2022-11-23T16:16:04;8.53;;;2.53;;
6280;SDS011;3173;48.204;11.612;2022-11-23T16:18:32;7.60;;;2.67;;
6280;SDS011;3173;48.204;11.612;2022-11-23T16:21:00;8.30;;;2.80;;
6280;SDS011;3173;48.204;11.612;2022-11-23T16:23:27;6.00;;;3.00;;
6280;SDS011;3173;48.204;11.612;2022-11-23T16:26:00;5.73;;;2.23;;
6280;SDS011;3173;48.204;11.612;2022-11-23T16:28:36;9.43;;;3.70;;
6280;SDS011;3173;48.204;11.612;2022-11-23T16:31:02;11.60;;;2.73;;
6280;SDS011;3173;48.204;11.612;2022-11-23T16:33:28;6.80;;;2.77;;
6280;SDS011;3173;48.204;11.612;2022-11-23T16:35:54;7.00;;;3.27;;
6280;SDS011;3173;48.204;11.612;2022-11-23T16:38:21;8.10;;;3.57;;
6280;SDS011;3173;48.204;11.612;2022-11-23T16:40:47;6.57;;;2.83;;
6280;SDS011;3173;48.204;11.612;2022-11-23T16:43:14;7.83;;;3.10;;
6280;SDS011;3173;48.204;11.612;2022-11-23T16:45:42;9.00;;;3.70;;
6280;SDS011;3173;48.204;11.612;2022-11-23T16:50:49;12.13;;;3.77;;
6280;SDS011;3173;48.204;11.612;2022-11-23T16:53:15;10.60;;;3.50;;
6280;SDS011;3173;48.204;11.612;2022-11-23T16:55:43;7.80;;;3.33;;
6280;SDS011;3173;48.204;11.612;2022-11-23T16:58:10;6.40;;;3.30;;
6280;SDS011;3173;48.204;11.612;2022-11-23T17:00:38;5.93;;;2.33;;
6280;SDS011;3173;48.204;11.612;2022-11-23T17:03:04;7.60;;;3.20;;
6280;SDS011;3173;48.204;11.612;2022-11-23T17:05:30;6.50;;;2.57;;
6280;SDS011;3173;48.204;11.612;2022-11-23T17:07:56;9.33;;;4.13;;